createdAt,value
2023-01-19T00:04:12.272Z,1.31
2023-01-19T00:09:15.027Z,1.29
2023-01-19T00:14:17.792Z,1.28
2023-01-19T00:19:20.540Z,1.28
2023-01-19T00:24:23.304Z,1.25
2023-01-19T00:29:27.772Z,1.27
2023-01-19T00:34:39.777Z,1.31
2023-01-19T00:39:43.602Z,1.31
2023-01-19T00:44:46.517Z,1.28
2023-01-19T00:49:49.223Z,1.26
2023-01-19T00:54:52.257Z,1.25
2023-01-19T00:59:55.293Z,1.26
2023-01-19T01:04:58.130Z,1.27
2023-01-19T01:10:01.578Z,1.25
2023-01-19T01:15:06.489Z,1.23
2023-01-19T01:20:10.304Z,1.21
2023-01-19T01:25:15.397Z,1.19
2023-01-19T01:30:19.588Z,1.23
2023-01-19T01:35:22.366Z,1.27
2023-01-19T01:40:25.093Z,1.26
2023-01-19T01:45:36.470Z,1.26
2023-01-19T01:51:05.831Z,1.24
2023-01-19T01:56:17.773Z,1.24
2023-01-19T02:01:39.527Z,1.24
2023-01-19T02:07:01.196Z,1.22
2023-01-19T02:12:22.865Z,1.18
2023-01-19T02:17:26.167Z,1.19
2023-01-19T02:22:36.270Z,1.20
2023-01-19T02:27:39.669Z,1.20
2023-01-19T02:32:43.168Z,1.24
2023-01-19T02:37:47.319Z,1.25
2023-01-19T02:42:52.313Z,1.24
2023-01-19T02:47:55.079Z,1.24
2023-01-19T02:53:19.539Z,1.28
2023-01-19T02:59:09.352Z,1.33
2023-01-19T03:04:31.654Z,1.33
2023-01-19T03:09:52.769Z,1.29
2023-01-19T03:15:01.204Z,1.27
2023-01-19T03:20:07.231Z,1.30
2023-01-19T03:25:10.339Z,1.31
2023-01-19T03:30:24.235Z,1.31
2023-01-19T03:35:31.912Z,1.28
2023-01-19T03:40:36.700Z,1.22
2023-01-19T03:45:40.119Z,1.14
2023-01-19T03:50:42.993Z,1.07
2023-01-19T03:55:48.415Z,1.03
2023-01-19T04:00:51.186Z,0.96
2023-01-19T04:05:56.408Z,0.87
2023-01-19T04:10:59.249Z,0.77
2023-01-19T04:16:04.114Z,0.71
2023-01-19T04:21:09.519Z,0.66
2023-01-19T04:26:13.080Z,0.57
2023-01-19T04:31:15.918Z,0.48
2023-01-19T04:36:18.755Z,0.46
2023-01-19T04:41:21.675Z,0.52
2023-01-19T04:46:24.467Z,0.52
2023-01-19T04:51:28.803Z,0.46
2023-01-19T04:56:31.542Z,0.48
2023-01-19T05:01:34.363Z,0.55
2023-01-19T05:06:37.554Z,0.55
2023-01-19T05:11:40.280Z,0.52
2023-01-19T05:16:43.081Z,0.51
2023-01-19T05:21:45.810Z,0.53
2023-01-19T05:26:48.576Z,0.53
2023-01-19T05:31:51.307Z,0.45
2023-01-19T05:36:54.172Z,0.43
2023-01-19T05:41:56.950Z,0.50
2023-01-19T05:47:00.769Z,0.60
2023-01-19T05:52:03.660Z,0.68
2023-01-19T05:57:08.911Z,0.69
2023-01-19T06:02:11.822Z,0.69
2023-01-19T06:07:14.654Z,0.69
2023-01-19T06:12:17.438Z,0.66
2023-01-19T06:17:20.659Z,0.65
2023-01-19T06:22:23.785Z,0.69
2023-01-19T06:27:26.635Z,0.70
2023-01-19T06:32:29.377Z,0.67
2023-01-19T06:37:32.220Z,0.65
2023-01-19T06:42:34.974Z,0.67
2023-01-19T06:47:37.828Z,0.65
2023-01-19T06:52:42.520Z,0.60
2023-01-19T06:57:46.177Z,0.55
2023-01-19T07:02:49.264Z,0.52
2023-01-19T07:07:54.055Z,0.50
2023-01-19T07:12:58.267Z,0.50
2023-01-19T07:18:05.674Z,0.53
2023-01-19T07:23:09.491Z,0.57
2023-01-19T07:28:15.734Z,0.60
2023-01-19T07:33:18.806Z,0.62
2023-01-19T07:38:23.016Z,0.64
2023-01-19T07:43:25.874Z,0.63
2023-01-19T07:48:29.154Z,0.63
2023-01-19T07:53:32.894Z,0.62
2023-01-19T07:58:35.852Z,0.61
2023-01-19T08:03:39.446Z,0.61
2023-01-19T08:08:42.281Z,0.63
2023-01-19T08:13:48.016Z,0.67
2023-01-19T08:18:50.877Z,0.70
2023-01-19T08:23:54.956Z,0.74
2023-01-19T08:29:01.074Z,0.77
2023-01-19T08:34:04.839Z,0.84
2023-01-19T08:39:12.342Z,0.95
2023-01-19T08:44:16.050Z,1.05
2023-01-19T08:49:18.921Z,1.16
2023-01-19T08:54:25.190Z,1.25
2023-01-19T08:59:40.634Z,1.36
2023-01-19T09:04:44.559Z,1.43
2023-01-19T09:09:47.828Z,1.46
2023-01-19T09:14:50.693Z,1.50
2023-01-19T09:19:54.193Z,1.50
2023-01-19T09:24:57.063Z,1.53
2023-01-19T09:29:59.897Z,1.63
2023-01-19T09:35:02.820Z,1.75
2023-01-19T09:40:07.067Z,1.84
2023-01-19T09:45:25.414Z,1.89
2023-01-19T09:50:34.198Z,1.95
2023-01-19T09:55:39.745Z,2.01
2023-01-19T10:01:25.194Z,2.05
2023-01-19T10:06:56.398Z,2.08
2023-01-19T10:12:22.325Z,2.13
2023-01-19T10:17:42.137Z,2.20
2023-01-19T10:22:49.716Z,2.21
2023-01-19T10:27:52.629Z,2.19
2023-01-19T10:32:55.471Z,2.19
2023-01-19T10:38:02.032Z,2.13
2023-01-19T10:43:41.333Z,2.11
2023-01-19T10:48:52.310Z,2.09
2023-01-19T10:54:03.997Z,2.12
2023-01-19T10:59:07.799Z,2.20
2023-01-19T11:04:28.894Z,2.27
2023-01-19T11:09:31.749Z,2.37
2023-01-19T11:14:34.697Z,2.44
2023-01-19T11:19:37.545Z,2.41
2023-01-19T11:24:40.486Z,2.39
2023-01-19T11:30:01.812Z,2.37
2023-01-19T11:35:41.174Z,2.34
2023-01-19T11:40:59.102Z,2.37
2023-01-19T11:46:03.107Z,2.47
2023-01-19T11:51:10.418Z,2.55
2023-01-19T11:56:15.664Z,2.61
2023-01-19T12:01:24.886Z,2.65
2023-01-19T12:06:41.467Z,2.64
2023-01-19T12:11:50.834Z,2.62
2023-01-19T12:16:58.125Z,2.60
2023-01-19T12:22:01.763Z,2.56
2023-01-19T12:27:18.497Z,2.59
2023-01-19T12:32:34.566Z,2.67
2023-01-19T12:37:41.303Z,2.71
2023-01-19T12:43:00.987Z,2.69
2023-01-19T12:48:04.922Z,2.69
2023-01-19T12:53:20.186Z,2.71
2023-01-19T12:58:25.291Z,2.70
2023-01-19T13:03:29.297Z,2.68
2023-01-19T13:08:57.253Z,2.63
2023-01-19T13:14:00.093Z,2.64
2023-01-19T13:19:06.333Z,2.62
2023-01-19T13:24:15.209Z,2.60
2023-01-19T13:29:46.026Z,2.53
2023-01-19T13:34:58.633Z,2.53
2023-01-19T13:40:02.845Z,2.46
2023-01-19T13:45:25.143Z,2.32
2023-01-19T13:50:33.902Z,2.24
2023-01-19T13:55:36.746Z,2.18
2023-01-19T14:00:46.092Z,2.11
2023-01-19T14:05:54.049Z,2.07
2023-01-19T14:10:56.815Z,2.02
2023-01-19T14:16:23.813Z,1.99
2023-01-19T14:21:38.315Z,1.96
2023-01-19T14:26:49.265Z,1.95
2023-01-19T14:32:00.935Z,1.98
2023-01-19T14:37:15.495Z,2.01
2023-01-19T14:43:20.237Z,1.98
2023-01-19T14:48:29.442Z,1.94
2023-01-19T14:53:37.197Z,1.90
2023-01-19T14:58:40.021Z,1.89
2023-01-19T15:03:45.178Z,1.83
2023-01-19T15:08:53.806Z,1.81
2023-01-19T15:14:04.402Z,1.83
2023-01-19T15:19:11.554Z,1.86
2023-01-19T15:24:16.894Z,1.88
2023-01-19T15:29:26.312Z,1.89
2023-01-19T15:34:29.152Z,1.93
2023-01-19T15:39:32.614Z,1.95
2023-01-19T15:44:35.492Z,1.92
2023-01-19T15:49:38.470Z,1.92
2023-01-19T15:54:41.231Z,1.93
2023-01-19T15:59:44.174Z,1.96
2023-01-19T16:04:50.463Z,1.97
2023-01-19T16:09:53.330Z,2.00
2023-01-19T16:14:56.161Z,2.03
2023-01-19T16:19:59.201Z,2.03
2023-01-19T16:25:02.169Z,2.00
2023-01-19T16:30:07.441Z,1.99
2023-01-19T16:35:10.563Z,1.97
2023-01-19T16:40:13.537Z,1.93
2023-01-19T16:45:16.467Z,1.87
2023-01-19T16:50:19.634Z,1.84
2023-01-19T16:55:22.394Z,1.83
2023-01-19T17:00:25.351Z,1.83
2023-01-19T17:05:28.224Z,1.79
2023-01-19T17:10:31.413Z,1.76
2023-01-19T17:15:34.726Z,1.76
2023-01-19T17:20:37.579Z,1.79
2023-01-19T17:25:40.430Z,1.79
2023-01-19T17:30:43.307Z,1.82
2023-01-19T17:35:46.955Z,1.85
2023-01-19T17:40:50.011Z,1.83
2023-01-19T17:45:52.905Z,1.78
2023-01-19T17:51:02.343Z,1.72
2023-01-19T17:56:07.419Z,1.71
2023-01-19T18:01:16.232Z,1.69
2023-01-19T18:06:20.212Z,1.67
2023-01-19T18:11:23.395Z,1.65
2023-01-19T18:16:29.425Z,1.68
2023-01-19T18:21:32.241Z,1.73
2023-01-19T18:26:35.846Z,1.76
2023-01-19T18:31:38.868Z,1.76
2023-01-19T18:36:41.882Z,1.78
2023-01-19T18:41:44.767Z,1.78
2023-01-19T18:46:47.753Z,1.76
2023-01-19T18:51:50.486Z,1.75
2023-01-19T18:56:53.294Z,1.78
2023-01-19T19:01:56.178Z,1.78
2023-01-19T19:06:58.982Z,1.78
2023-01-19T19:12:01.830Z,1.79
2023-01-19T19:17:04.599Z,1.82
2023-01-19T19:22:07.438Z,1.83
2023-01-19T19:27:14.228Z,1.81
2023-01-19T19:32:20.511Z,1.82
2023-01-19T19:37:23.416Z,1.76
2023-01-19T19:42:26.350Z,1.63
2023-01-19T19:47:30.657Z,1.59
2023-01-19T19:52:41.049Z,1.57
2023-01-19T19:57:44.001Z,1.56
2023-01-19T20:02:46.809Z,1.59
2023-01-19T20:07:49.630Z,1.57
2023-01-19T20:12:52.445Z,1.55
2023-01-19T20:17:56.282Z,1.57
2023-01-19T20:23:02.302Z,1.60
2023-01-19T20:28:05.985Z,1.57
2023-01-19T20:33:08.787Z,1.55
2023-01-19T20:38:11.720Z,1.56
2023-01-19T20:43:14.916Z,1.53
2023-01-19T20:48:17.696Z,1.48
2023-01-19T20:53:20.577Z,1.40
2023-01-19T20:58:23.730Z,1.39
2023-01-19T21:03:26.435Z,1.35
2023-01-19T21:08:29.209Z,1.25
2023-01-19T21:13:32.415Z,1.22
2023-01-19T21:18:35.329Z,1.18
2023-01-19T21:23:38.082Z,1.12
2023-01-19T21:28:41.452Z,1.10
2023-01-19T21:33:44.313Z,1.13
2023-01-19T21:38:47.264Z,1.17
2023-01-19T21:43:50.059Z,1.14
2023-01-19T21:48:52.803Z,1.12
2023-01-19T21:53:59.667Z,1.21
2023-01-19T21:59:03.600Z,1.30
2023-01-19T22:04:06.560Z,1.39
2023-01-19T22:09:09.317Z,1.45
2023-01-19T22:14:12.128Z,1.50
2023-01-19T22:19:14.840Z,1.53
2023-01-19T22:24:17.658Z,1.56
2023-01-19T22:29:20.408Z,1.58
2023-01-19T22:34:23.169Z,1.57
2023-01-19T22:39:25.944Z,1.56
2023-01-19T22:44:28.667Z,1.59
2023-01-19T22:49:31.400Z,1.62
2023-01-19T22:54:34.256Z,1.62
2023-01-19T22:59:36.977Z,1.62
2023-01-19T23:04:39.747Z,1.60
2023-01-19T23:09:42.723Z,1.57
2023-01-19T23:14:45.441Z,1.55
2023-01-19T23:19:48.201Z,1.50
2023-01-19T23:24:50.920Z,1.43
2023-01-19T23:29:53.668Z,1.35
2023-01-19T23:34:56.372Z,1.36
2023-01-19T23:39:59.108Z,1.44
2023-01-19T23:45:02.224Z,1.46
2023-01-19T23:50:07.711Z,1.45
2023-01-19T23:55:10.492Z,1.43
